Time;durP1;ratioP1;P1;durP2;ratioP2;P2;SDS_P1;SDS_P2;PMS_P1;PMS_P2;Temp;Humidity;BMP_temperature;BMP_pressure;BME280_temperature;BME280_humidity;BME280_pressure;Samples;Min_cycle;Max_cycle;Signal;HPM_P1;HPM_P2
2021/12/02 00:02:20;;;;;;;21.33;14.63;;;6.70;76.80;;;;;;4981682;28;20038;-82
2021/12/02 00:04:46;;;;;;;17.83;12.80;;;6.70;76.80;;;;;;4966186;28;20413;-82
2021/12/02 00:07:12;;;;;;;19.93;13.43;;;6.70;76.80;;;;;;4975374;28;20049;-82
2021/12/02 00:09:38;;;;;;;16.87;13.17;;;6.70;76.70;;;;;;4986471;28;20046;-82
2021/12/02 00:12:06;;;;;;;16.03;12.97;;;6.70;76.80;;;;;;4961934;28;20050;-82
2021/12/02 00:14:46;;;;;;;16.97;13.33;;;6.60;76.80;;;;;;4977907;28;20033;-82
2021/12/02 00:17:24;;;;;;;16.73;13.17;;;6.70;77.00;;;;;;4965245;28;20035;-82
2021/12/02 00:23:09;;;;;;;18.67;13.40;;;6.70;77.10;;;;;;4982811;28;20042;-82
2021/12/02 00:25:35;;;;;;;16.37;12.67;;;6.70;77.10;;;;;;4976210;28;20506;-82
2021/12/02 00:28:01;;;;;;;18.47;14.47;;;6.70;76.90;;;;;;4979289;28;20483;-82
2021/12/02 00:30:28;;;;;;;21.47;15.23;;;6.70;76.80;;;;;;4961771;28;20029;-82
2021/12/02 00:32:55;;;;;;;22.00;16.40;;;6.70;76.80;;;;;;4981470;28;20023;-82
2021/12/02 00:35:22;;;;;;;24.33;15.67;;;6.70;76.80;;;;;;4976297;28;20980;-82
2021/12/02 00:37:48;;;;;;;23.23;16.03;;;6.70;76.90;;;;;;4968362;28;20053;-82
2021/12/02 00:40:14;;;;;;;25.00;17.50;;;6.60;76.80;;;;;;4970651;28;20039;-82
2021/12/02 00:42:42;;;;;;;23.63;16.57;;;6.60;77.00;;;;;;4965103;28;20026;-82
2021/12/02 00:45:08;;;;;;;25.77;17.10;;;6.60;77.00;;;;;;4962986;28;20081;-82
2021/12/02 00:47:36;;;;;;;21.17;14.20;;;6.60;77.00;;;;;;4964449;28;20023;-82
2021/12/02 00:50:03;;;;;;;24.77;16.83;;;6.60;77.30;;;;;;4978720;28;20035;-82
2021/12/02 00:52:30;;;;;;;22.60;16.33;;;6.60;77.20;;;;;;4980863;28;20038;-82
2021/12/02 00:54:56;;;;;;;21.43;15.70;;;6.60;77.10;;;;;;4961770;28;20137;-82
2021/12/02 00:57:23;;;;;;;24.27;17.60;;;6.70;77.10;;;;;;4980641;28;20102;-82
2021/12/02 00:59:49;;;;;;;23.20;16.30;;;6.70;76.80;;;;;;4962011;28;20422;-82
2021/12/02 01:02:16;;;;;;;26.20;16.53;;;6.70;76.90;;;;;;4960076;28;20556;-82
2021/12/02 01:04:41;;;;;;;25.00;16.53;;;6.60;76.80;;;;;;4966362;28;20043;-82
2021/12/02 01:07:08;;;;;;;22.63;16.47;;;6.60;76.80;;;;;;4969746;28;20038;-82
2021/12/02 01:09:34;;;;;;;21.63;16.27;;;6.60;76.80;;;;;;4990766;28;20038;-82
2021/12/02 01:12:01;;;;;;;25.53;17.37;;;6.60;76.90;;;;;;4990250;28;20027;-82
2021/12/02 01:14:27;;;;;;;27.93;16.97;;;6.60;77.00;;;;;;4968341;28;20026;-82
2021/12/02 01:16:52;;;;;;;25.97;17.47;;;6.70;76.90;;;;;;4969387;28;20034;-82
2021/12/02 01:19:18;;;;;;;22.90;14.47;;;6.70;76.90;;;;;;4981127;28;20454;-82
2021/12/02 01:21:44;;;;;;;21.40;15.37;;;6.60;76.90;;;;;;4972167;28;20062;-82
2021/12/02 01:24:13;;;;;;;25.63;16.23;;;6.60;77.00;;;;;;4984964;28;20191;-82
2021/12/02 01:26:40;;;;;;;21.47;15.03;;;6.60;77.00;;;;;;4984476;28;20035;-82
2021/12/02 01:29:06;;;;;;;26.60;18.57;;;6.60;77.00;;;;;;4987778;28;20057;-82
2021/12/02 01:31:34;;;;;;;28.20;18.53;;;6.60;76.80;;;;;;4985954;28;20109;-82
2021/12/02 01:34:02;;;;;;;26.33;18.37;;;6.50;76.80;;;;;;4979687;28;20374;-82
2021/12/02 01:36:48;;;;;;;32.63;19.80;;;6.50;76.70;;;;;;4986447;28;20038;-82
2021/12/02 01:39:14;;;;;;;30.60;18.73;;;6.40;77.20;;;;;;4988275;28;20023;-82
2021/12/02 01:41:44;;;;;;;29.13;20.00;;;6.50;77.30;;;;;;4968716;28;20393;-82
2021/12/02 01:44:14;;;;;;;25.67;17.40;;;6.40;77.20;;;;;;4983753;28;20081;-82
2021/12/02 01:46:41;;;;;;;24.00;16.17;;;6.40;77.40;;;;;;4967814;28;20026;-82
2021/12/02 01:49:10;;;;;;;25.47;16.63;;;6.50;77.50;;;;;;4984928;28;20045;-82
2021/12/02 01:51:51;;;;;;;23.53;15.37;;;6.50;77.40;;;;;;4978519;28;20050;-82
2021/12/02 01:54:24;;;;;;;24.47;15.70;;;6.50;77.40;;;;;;4970126;28;20383;-82
2021/12/02 01:56:54;;;;;;;32.03;20.27;;;6.50;77.20;;;;;;4968201;28;20023;-82
2021/12/02 01:59:28;;;;;;;37.57;20.83;;;6.50;77.10;;;;;;4965855;28;20035;-82
2021/12/02 02:02:01;;;;;;;37.23;22.07;;;6.50;77.20;;;;;;4970161;28;20119;-82
2021/12/02 02:04:27;;;;;;;;;;;6.50;77.20;;;;;;4982453;28;20031;-82
2021/12/02 02:06:54;;;;;;;36.20;20.17;;;6.50;77.30;;;;;;4958680;28;19965;-82
2021/12/02 02:09:20;;;;;;;31.87;20.43;;;6.50;77.10;;;;;;4980304;28;20026;-82
2021/12/02 02:11:46;;;;;;;26.90;18.27;;;6.50;77.20;;;;;;4991842;28;20105;-82
2021/12/02 02:14:12;;;;;;;29.27;19.23;;;6.40;77.30;;;;;;4981942;28;20027;-82
2021/12/02 02:16:39;;;;;;;31.07;20.37;;;6.50;77.60;;;;;;4987044;28;20101;-82
2021/12/02 02:19:05;;;;;;;31.70;19.87;;;6.50;77.50;;;;;;4961696;28;20097;-82
2021/12/02 02:21:35;;;;;;;26.17;17.93;;;6.50;77.50;;;;;;4991945;28;20109;-82
2021/12/02 02:24:03;;;;;;;31.90;19.63;;;6.50;77.40;;;;;;4984664;28;20030;-82
2021/12/02 02:26:35;;;;;;;27.30;17.40;;;6.50;77.40;;;;;;4971710;28;20053;-82
2021/12/02 02:29:06;;;;;;;24.63;17.08;;;6.60;77.50;;;;;;4967023;28;20085;-82
2021/12/02 02:31:33;;;;;;;28.40;18.63;;;6.60;77.50;;;;;;4964400;28;20077;-82
2021/12/02 02:34:00;;;;;;;27.73;19.20;;;6.60;77.50;;;;;;4969284;28;20026;-82
2021/12/02 02:36:30;;;;;;;26.03;18.80;;;6.60;77.40;;;;;;4982163;28;20121;-82
2021/12/02 02:38:57;;;;;;;21.70;16.00;;;6.60;77.40;;;;;;4987734;28;20050;-82
2021/12/02 02:41:30;;;;;;;24.57;16.70;;;6.60;77.50;;;;;;4957306;28;20038;-82
2021/12/02 02:43:59;;;;;;;20.83;15.37;;;6.60;77.60;;;;;;4961351;28;20121;-82
2021/12/02 02:46:36;;;;;;;16.60;11.87;;;6.70;77.50;;;;;;4963557;28;20026;-82
2021/12/02 02:49:06;;;;;;;18.40;13.10;;;6.60;77.40;;;;;;4971240;28;20030;-82
2021/12/02 02:51:32;;;;;;;17.20;13.63;;;6.70;77.30;;;;;;4972363;28;20058;-82
2021/12/02 02:54:06;;;;;;;18.50;13.43;;;6.60;77.20;;;;;;4968901;28;20050;-82
2021/12/02 02:56:37;;;;;;;20.70;14.33;;;6.60;77.30;;;;;;4990265;28;20462;-82
2021/12/02 03:02:22;;;;;;;20.47;14.57;;;6.60;77.30;;;;;;4949060;29;20046;-82
2021/12/02 03:07:34;;;;;;;20.50;14.87;;;6.60;77.20;;;;;;4964964;28;20026;-82
2021/12/02 03:10:13;;;;;;;19.33;13.83;;;6.60;77.30;;;;;;4981401;28;20037;-82
2021/12/02 03:12:53;;;;;;;18.63;13.97;;;6.60;77.30;;;;;;4981767;28;20050;-82
2021/12/02 03:17:46;;;;;;;18.03;13.37;;;6.60;77.30;;;;;;4982746;28;20544;-82
2021/12/02 03:20:13;;;;;;;18.83;14.43;;;6.70;77.40;;;;;;4960037;28;20401;-82
2021/12/02 03:22:38;;;;;;;19.60;13.60;;;6.60;77.20;;;;;;4964759;28;20026;-82
2021/12/02 03:25:06;;;;;;;20.80;13.33;;;6.60;77.20;;;;;;4982485;28;20041;-82
2021/12/02 03:27:32;;;;;;;19.00;13.33;;;6.60;77.20;;;;;;4964908;28;21354;-82
2021/12/02 03:29:58;;;;;;;20.13;14.27;;;6.70;77.30;;;;;;4964006;28;20407;-82
2021/12/02 03:32:24;;;;;;;21.90;14.80;;;6.60;77.20;;;;;;4964826;28;20030;-82
2021/12/02 03:34:50;;;;;;;21.77;15.43;;;6.60;77.20;;;;;;4978848;28;20578;-82
2021/12/02 03:37:16;;;;;;;22.07;15.37;;;6.50;77.30;;;;;;4965162;28;20022;-82
2021/12/02 03:39:43;;;;;;;19.97;15.50;;;6.50;77.50;;;;;;4981200;28;20113;-82
2021/12/02 03:42:09;;;;;;;17.70;13.57;;;6.60;77.70;;;;;;4976275;28;20532;-82
2021/12/02 03:44:35;;;;;;;24.77;14.57;;;6.60;77.60;;;;;;4984101;28;20022;-82
2021/12/02 03:47:01;;;;;;;20.20;14.73;;;6.60;77.50;;;;;;4963342;28;20045;-82
2021/12/02 03:49:27;;;;;;;21.17;14.50;;;6.60;77.40;;;;;;4965052;28;20399;-82
2021/12/02 03:51:53;;;;;;;17.23;12.67;;;6.60;77.40;;;;;;4959035;28;20030;-82
2021/12/02 03:54:19;;;;;;;17.30;12.80;;;6.60;77.40;;;;;;4982766;28;20046;-82
2021/12/02 03:56:45;;;;;;;16.73;12.97;;;6.60;77.40;;;;;;4983838;28;20022;-82
2021/12/02 03:59:12;;;;;;;19.07;12.87;;;6.60;77.40;;;;;;4969152;28;20037;-82
2021/12/02 04:01:38;;;;;;;18.20;13.23;;;6.60;77.40;;;;;;4982929;28;20105;-82
2021/12/02 04:04:04;;;;;;;19.87;13.83;;;6.60;77.40;;;;;;4982525;28;20085;-82
2021/12/02 04:06:29;;;;;;;19.63;14.87;;;6.60;77.30;;;;;;4962844;28;20033;-82
2021/12/02 04:09:07;;;;;;;27.43;17.40;;;6.60;77.20;;;;;;4956849;28;20391;-82
2021/12/02 04:11:40;;;;;;;21.33;14.03;;;6.60;77.40;;;;;;4978519;28;20161;-82
2021/12/02 04:16:50;;;;;;;14.40;9.83;;;6.50;77.40;;;;;;4979346;28;20121;-82
2021/12/02 04:19:16;;;;;;;12.53;8.77;;;6.40;77.80;;;;;;4962543;28;20038;-82
2021/12/02 04:21:41;;;;;;;11.40;8.23;;;6.50;77.70;;;;;;4980292;28;20029;-82
2021/12/02 04:24:07;;;;;;;12.13;8.40;;;6.50;77.60;;;;;;4980560;28;20042;-82
2021/12/02 04:26:33;;;;;;;12.13;9.37;;;6.50;77.60;;;;;;4973613;28;20462;-82
2021/12/02 04:28:59;;;;;;;16.37;12.63;;;6.50;77.50;;;;;;4979490;28;20042;-82
2021/12/02 04:31:24;;;;;;;19.70;13.43;;;6.50;77.40;;;;;;4983156;28;20018;-82
2021/12/02 04:33:50;;;;;;;23.77;14.20;;;6.60;77.30;;;;;;4984929;28;20023;-82
2021/12/02 04:36:16;;;;;;;20.47;14.70;;;6.60;77.20;;;;;;4979898;28;20382;-82
2021/12/02 04:38:41;;;;;;;23.10;16.17;;;6.60;77.10;;;;;;4968275;28;20564;-82
2021/12/02 04:41:07;;;;;;;22.33;15.33;;;6.60;77.20;;;;;;4963497;28;20030;-82
2021/12/02 04:43:33;;;;;;;27.43;16.33;;;6.60;77.10;;;;;;4981810;28;20031;-82
2021/12/02 04:45:59;;;;;;;31.27;19.60;;;6.60;77.00;;;;;;4981567;28;20129;-82
2021/12/02 04:48:24;;;;;;;36.73;21.93;;;6.60;77.00;;;;;;4985259;28;20478;-82
2021/12/02 04:50:50;;;;;;;31.43;19.60;;;6.50;77.10;;;;;;4967343;28;22418;-82
2021/12/02 04:53:16;;;;;;;34.73;19.07;;;6.50;77.50;;;;;;4987366;28;20035;-82
2021/12/02 04:55:42;;;;;;;28.33;18.70;;;6.50;77.50;;;;;;4963369;28;20035;-82
2021/12/02 04:58:08;;;;;;;22.13;14.80;;;6.50;77.40;;;;;;4962804;28;20034;-82
2021/12/02 05:00:34;;;;;;;20.83;12.80;;;6.50;77.50;;;;;;4970711;28;20792;-82
2021/12/02 05:03:00;;;;;;;24.07;13.47;;;6.50;77.30;;;;;;4981849;28;20383;-82
2021/12/02 05:05:26;;;;;;;15.60;11.67;;;6.50;77.20;;;;;;4993087;28;20023;-82
2021/12/02 05:07:55;;;;;;;18.27;12.00;;;6.50;77.00;;;;;;4981183;28;20014;-82
2021/12/02 05:10:22;;;;;;;16.30;10.50;;;6.50;77.30;;;;;;4987415;28;20106;-82
2021/12/02 05:12:48;;;;;;;13.37;8.17;;;6.50;77.40;;;;;;4970194;28;20027;-82
2021/12/02 05:15:15;;;;;;;13.53;8.10;;;6.50;77.40;;;;;;4985031;28;20045;-82
2021/12/02 05:17:40;;;;;;;14.57;10.43;;;6.50;77.20;;;;;;4966484;28;20027;-82
2021/12/02 05:20:07;;;;;;;17.80;11.67;;;6.50;77.20;;;;;;4967182;28;20039;-82
2021/12/02 05:22:33;;;;;;;17.20;11.63;;;6.50;77.10;;;;;;4985960;28;20368;-82
2021/12/02 05:24:59;;;;;;;24.20;14.63;;;6.50;77.20;;;;;;4964451;28;20034;-82
2021/12/02 05:27:25;;;;;;;25.80;14.23;;;6.50;77.10;;;;;;4977331;28;20031;-82
2021/12/02 05:29:51;;;;;;;27.73;13.70;;;6.50;77.00;;;;;;4970287;28;20031;-82
2021/12/02 05:32:17;;;;;;;20.30;13.73;;;6.50;77.00;;;;;;4970359;28;20085;-82
2021/12/02 05:34:47;;;;;;;27.43;14.50;;;6.50;77.10;;;;;;4988060;28;20509;-82
2021/12/02 05:37:13;;;;;;;25.53;14.27;;;6.50;77.10;;;;;;4961296;28;20072;-82
2021/12/02 05:39:39;;;;;;;23.27;15.37;;;6.40;77.10;;;;;;4978009;28;20031;-82
2021/12/02 05:42:05;;;;;;;27.00;17.20;;;6.40;77.00;;;;;;4983910;28;20094;-82
2021/12/02 05:44:40;;;;;;;19.77;14.03;;;6.50;77.20;;;;;;4968252;28;20112;-82
2021/12/02 05:47:06;;;;;;;28.13;16.07;;;6.50;77.20;;;;;;4961808;28;20367;-82
2021/12/02 05:49:32;;;;;;;27.77;15.13;;;6.50;77.20;;;;;;4967272;28;20034;-82
2021/12/02 05:51:58;;;;;;;24.17;15.83;;;6.50;77.10;;;;;;4968607;28;20041;-82
2021/12/02 05:54:24;;;;;;;25.23;16.20;;;6.40;77.00;;;;;;4979909;28;20402;-82
2021/12/02 05:56:49;;;;;;;25.17;15.30;;;6.50;77.10;;;;;;4963601;28;20030;-82
2021/12/02 05:59:15;;;;;;;20.00;13.97;;;6.40;77.10;;;;;;4980630;28;20034;-82
2021/12/02 06:01:42;;;;;;;22.40;15.13;;;6.50;77.10;;;;;;4987121;28;20027;-82
2021/12/02 06:04:09;;;;;;;24.37;14.30;;;6.50;77.10;;;;;;4964277;28;20524;-82
2021/12/02 06:06:35;;;;;;;28.70;16.43;;;6.50;77.20;;;;;;4984392;28;20038;-82
2021/12/02 06:09:03;;;;;;;27.37;17.47;;;6.50;77.20;;;;;;4963598;28;20062;-82
2021/12/02 06:11:28;;;;;;;34.23;18.50;;;6.50;77.20;;;;;;4964656;28;20023;-82
2021/12/02 06:13:54;;;;;;;40.93;19.63;;;6.40;77.00;;;;;;4985667;28;20033;-82
2021/12/02 06:16:21;;;;;;;39.47;17.90;;;6.40;77.10;;;;;;4985930;28;20034;-82
2021/12/02 06:18:47;;;;;;;27.20;17.50;;;6.50;77.20;;;;;;4964356;28;20041;-81
2021/12/02 06:21:13;;;;;;;31.97;17.13;;;6.40;77.20;;;;;;4965188;28;20214;-82
2021/12/02 06:23:41;;;;;;;25.53;16.73;;;6.40;77.20;;;;;;4984382;28;20617;-82
2021/12/02 06:26:07;;;;;;;27.90;17.40;;;6.50;77.30;;;;;;4968563;28;20655;-82
2021/12/02 06:28:33;;;;;;;27.93;18.83;;;6.40;77.20;;;;;;4972868;28;20023;-81
2021/12/02 06:31:02;;;;;;;19.93;14.70;;;6.50;77.20;;;;;;4961265;28;20683;-82
2021/12/02 06:33:32;;;;;;;20.57;14.20;;;6.40;77.20;;;;;;4978528;28;20030;-82
2021/12/02 06:35:58;;;;;;;24.77;16.70;;;6.50;77.40;;;;;;4965969;28;20086;-82
2021/12/02 06:38:24;;;;;;;24.97;17.37;;;6.50;77.10;;;;;;4964351;28;20058;-82
2021/12/02 06:40:51;;;;;;;23.33;16.10;;;6.50;77.20;;;;;;4968776;28;20030;-82
2021/12/02 06:43:17;;;;;;;23.90;17.53;;;6.50;77.20;;;;;;4982653;28;20039;-82
2021/12/02 06:45:44;;;;;;;31.40;18.63;;;6.50;77.20;;;;;;4962770;28;20039;-82
2021/12/02 06:48:10;;;;;;;26.83;18.87;;;6.40;77.30;;;;;;4986467;28;20034;-82
2021/12/02 06:50:37;;;;;;;29.97;19.13;;;6.50;77.30;;;;;;4963683;28;20125;-82
2021/12/02 06:53:04;;;;;;;31.77;21.30;;;6.50;77.20;;;;;;4960495;28;20027;-82
2021/12/02 06:55:30;;;;;;;29.70;19.57;;;6.50;77.10;;;;;;4982551;28;20035;-82
2021/12/02 06:57:56;;;;;;;30.57;20.20;;;6.40;77.20;;;;;;4963291;28;20456;-82
2021/12/02 07:00:22;;;;;;;35.20;19.93;;;6.40;77.40;;;;;;4958567;28;20023;-82
2021/12/02 07:02:52;;;;;;;38.03;20.93;;;6.40;77.40;;;;;;4963975;28;20030;-82
2021/12/02 07:05:18;;;;;;;30.33;19.27;;;6.40;77.40;;;;;;4960553;28;20042;-82
2021/12/02 07:07:45;;;;;;;50.50;20.87;;;6.40;77.40;;;;;;4958872;28;20023;-82
2021/12/02 07:10:17;;;;;;;31.40;19.77;;;6.40;77.20;;;;;;4977625;28;20682;-82
2021/12/02 07:12:45;;;;;;;27.45;18.65;;;6.40;77.40;;;;;;4967641;28;20022;-82
2021/12/02 07:15:54;;;;;;;34.57;20.43;;;6.40;77.70;;;;;;4966685;28;20034;-82
2021/12/02 07:18:01;;;;;;;31.67;19.00;;;6.40;77.60;;;;;;4977692;28;20069;-82
2021/12/02 07:20:34;;;;;;;25.63;17.90;;;6.50;77.50;;;;;;4985743;28;20064;-82
2021/12/02 07:23:00;;;;;;;32.10;19.98;;;6.50;77.40;;;;;;4980806;28;20470;-82
2021/12/02 07:25:28;;;;;;;32.27;21.93;;;6.40;77.30;;;;;;4968527;28;20366;-82
2021/12/02 07:27:53;;;;;;;32.50;21.43;;;6.50;77.60;;;;;;4971097;28;21212;-82
2021/12/02 07:30:19;;;;;;;31.37;19.53;;;6.50;77.50;;;;;;4953972;28;20410;-82
2021/12/02 07:32:52;;;;;;;24.03;17.17;;;6.50;77.60;;;;;;4977327;28;20053;-82
2021/12/02 07:35:18;;;;;;;;;;;6.50;77.50;;;;;;4961138;28;20031;-82
2021/12/02 07:37:49;;;;;;;48.57;29.67;;;6.40;77.40;;;;;;4957904;28;19909;-82
2021/12/02 07:40:16;;;;;;;35.73;24.17;;;6.40;77.50;;;;;;4978064;28;20490;-82
2021/12/02 07:42:45;;;;;;;36.67;23.07;;;6.50;77.80;;;;;;4959203;28;20486;-82
2021/12/02 07:45:10;;;;;;;32.30;21.83;;;6.50;77.70;;;;;;4980232;28;20041;-82
2021/12/02 07:47:40;;;;;;;49.27;30.47;;;6.50;78.00;;;;;;4986365;28;20031;-82
2021/12/02 07:50:09;;;;;;;42.67;26.70;;;6.50;77.90;;;;;;4986014;28;20524;-82
2021/12/02 07:52:39;;;;;;;34.33;21.40;;;6.50;77.70;;;;;;4983151;28;20491;-82
2021/12/02 07:55:07;;;;;;;36.40;22.80;;;6.60;77.70;;;;;;4963378;28;20054;-82
2021/12/02 07:57:40;;;;;;;43.30;23.53;;;6.60;77.50;;;;;;4961020;28;20027;-82
2021/12/02 08:00:07;;;;;;;44.07;26.57;;;6.60;77.50;;;;;;4981168;28;20118;-82
2021/12/02 08:02:34;;;;;;;39.07;24.37;;;6.60;77.50;;;;;;4966940;28;20501;-82
2021/12/02 08:05:00;;;;;;;42.17;24.27;;;6.60;77.40;;;;;;4966916;28;20493;-82
2021/12/02 08:07:26;;;;;;;45.13;26.83;;;6.60;77.30;;;;;;4963832;28;20132;-82
2021/12/02 08:09:52;;;;;;;39.03;25.07;;;6.60;77.90;;;;;;4973389;28;20478;-82
2021/12/02 08:12:18;;;;;;;36.63;23.30;;;6.60;77.30;;;;;;4977922;28;20107;-82
2021/12/02 08:14:43;;;;;;;30.00;20.93;;;6.60;77.30;;;;;;4960777;28;20054;-82
2021/12/02 08:17:09;;;;;;;34.63;21.40;;;6.60;77.30;;;;;;4967153;28;20065;-83
2021/12/02 08:19:35;;;;;;;37.90;24.77;;;6.60;77.40;;;;;;4983269;28;20550;-82
2021/12/02 08:22:00;;;;;;;38.93;24.20;;;6.60;77.50;;;;;;4980219;28;20034;-82
2021/12/02 08:24:26;;;;;;;44.67;25.63;;;6.60;77.40;;;;;;4969988;28;20039;-82
2021/12/02 08:26:53;;;;;;;46.17;26.37;;;6.70;77.50;;;;;;4963751;28;20113;-82
2021/12/02 08:29:20;;;;;;;41.97;25.13;;;6.70;77.40;;;;;;4969001;28;20054;-82
2021/12/02 08:31:47;;;;;;;49.20;29.43;;;6.70;77.40;;;;;;4957724;28;20038;-82
2021/12/02 08:34:12;;;;;;;42.60;25.30;;;6.70;77.20;;;;;;4961981;28;20030;-82
2021/12/02 08:37:12;;;;;;;36.03;21.53;;;6.60;77.60;;;;;;4985090;28;20052;-82
2021/12/02 08:39:31;;;;;;;41.83;24.60;;;6.70;77.80;;;;;;4973807;28;20501;-82
2021/12/02 08:41:57;;;;;;;35.90;22.70;;;6.70;77.80;;;;;;4980298;28;20031;-82
2021/12/02 08:44:30;;;;;;;37.63;23.63;;;6.80;77.70;;;;;;4970969;28;20085;-82
2021/12/02 08:46:56;;;;;;;36.92;24.65;;;6.80;77.30;;;;;;4978498;28;20043;-82
2021/12/02 08:49:23;;;;;;;40.43;23.87;;;6.80;77.30;;;;;;4975223;28;20048;-82
2021/12/02 08:51:49;;;;;;;34.83;22.23;;;6.80;77.40;;;;;;4982749;28;20390;-82
2021/12/02 08:54:15;;;;;;;42.03;26.33;;;6.80;77.40;;;;;;4965393;28;20077;-82
2021/12/02 08:56:41;;;;;;;40.37;25.20;;;6.80;77.40;;;;;;4982692;28;20950;-82
2021/12/02 08:59:07;;;;;;;41.77;26.13;;;6.90;77.30;;;;;;4980555;28;20019;-82
2021/12/02 09:01:34;;;;;;;41.50;26.27;;;6.80;77.20;;;;;;4978014;28;20022;-82
2021/12/02 09:04:02;;;;;;;42.43;27.47;;;6.90;77.50;;;;;;4957795;28;20118;-82
2021/12/02 09:06:29;;;;;;;41.53;26.57;;;6.90;77.40;;;;;;4963810;28;20035;-82
2021/12/02 09:08:58;;;;;;;40.53;24.67;;;6.90;77.40;;;;;;4983124;28;20033;-82
2021/12/02 09:11:24;;;;;;;40.07;24.77;;;6.90;77.40;;;;;;4971140;28;20037;-83
2021/12/02 09:13:51;;;;;;;42.63;26.23;;;6.90;77.40;;;;;;4981397;28;20023;-82
2021/12/02 09:16:18;;;;;;;45.57;25.60;;;6.90;77.40;;;;;;4966590;28;20105;-82
2021/12/02 09:18:44;;;;;;;38.93;26.13;;;6.90;77.40;;;;;;4967447;28;20026;-82
2021/12/02 09:21:09;;;;;;;42.60;27.67;;;6.90;77.50;;;;;;4969468;28;20515;-82
2021/12/02 09:23:35;;;;;;;41.03;27.57;;;6.90;77.50;;;;;;4980566;28;20093;-83
2021/12/02 09:26:01;;;;;;;36.00;23.97;;;7.00;77.40;;;;;;4975393;28;20066;-82
2021/12/02 09:28:27;;;;;;;36.23;24.50;;;7.00;77.60;;;;;;4966558;28;20109;-82
2021/12/02 09:30:53;;;;;;;36.17;24.47;;;7.00;77.50;;;;;;4963868;28;20014;-82
2021/12/02 09:33:19;;;;;;;37.07;23.60;;;7.00;77.40;;;;;;4968350;28;20029;-82
2021/12/02 09:35:45;;;;;;;39.00;24.77;;;7.00;77.30;;;;;;4963722;28;20023;-82
2021/12/02 09:38:11;;;;;;;37.83;24.40;;;7.00;77.40;;;;;;4966685;28;20023;-83
2021/12/02 09:40:39;;;;;;;43.87;25.90;;;7.00;77.50;;;;;;4967230;28;20030;-82
2021/12/02 09:43:05;;;;;;;46.83;27.60;;;7.00;77.60;;;;;;4966581;28;20036;-82
2021/12/02 09:45:31;;;;;;;43.97;27.73;;;7.10;77.60;;;;;;4971158;28;20026;-82
2021/12/02 09:47:57;;;;;;;43.50;27.00;;;7.10;77.50;;;;;;4995510;28;20050;-83
2021/12/02 09:50:31;;;;;;;116.80;27.80;;;7.10;77.50;;;;;;4972265;28;20419;-82
2021/12/02 09:53:05;;;;;;;50.57;25.10;;;7.10;77.50;;;;;;4984042;28;20019;-82
2021/12/02 09:56:15;;;;;;;37.63;25.13;;;7.00;77.50;;;;;;4970452;28;20082;-82
2021/12/02 09:58:24;;;;;;;38.97;24.30;;;7.00;77.60;;;;;;4977839;28;20500;-82
2021/12/02 10:00:59;;;;;;;51.43;25.27;;;7.00;77.50;;;;;;4981284;28;20049;-82
2021/12/02 10:03:33;;;;;;;36.57;25.00;;;7.00;77.50;;;;;;4964174;28;20030;-82
2021/12/02 10:06:07;;;;;;;41.77;25.67;;;7.00;77.70;;;;;;4978826;28;20038;-82
2021/12/02 10:09:08;;;;;;;75.90;31.20;;;7.00;77.70;;;;;;4980682;28;20391;-83
2021/12/02 10:12:01;;;;;;;94.10;35.83;;;7.00;77.50;;;;;;4984259;28;20384;-82
2021/12/02 10:14:35;;;;;;;80.35;31.23;;;7.00;77.70;;;;;;4964331;28;20033;-82
2021/12/02 10:17:14;;;;;;;59.20;27.30;;;7.10;77.80;;;;;;4986497;28;20536;-82
2021/12/02 10:20:11;;;;;;;70.70;26.43;;;7.10;77.90;;;;;;4982437;28;20465;-82
2021/12/02 10:22:37;;;;;;;118.10;29.93;;;7.20;77.50;;;;;;4962329;28;20081;-82
2021/12/02 10:25:03;;;;;;;93.37;30.13;;;7.10;77.30;;;;;;4986485;28;20113;-82
2021/12/02 10:27:33;;;;;;;88.57;31.33;;;7.10;77.50;;;;;;4964671;28;20038;-82
2021/12/02 10:29:58;;;;;;;82.10;30.57;;;7.10;77.70;;;;;;4985979;28;20086;-82
2021/12/02 10:32:28;;;;;;;66.30;30.53;;;7.10;77.60;;;;;;4965109;28;20128;-82
2021/12/02 10:35:06;;;;;;;68.83;34.90;;;7.10;77.70;;;;;;4988846;28;20033;-82
2021/12/02 10:37:34;;;;;;;53.33;28.90;;;7.20;77.70;;;;;;4983148;28;20456;-82
2021/12/02 10:40:03;;;;;;;49.17;28.30;;;7.20;77.60;;;;;;4984315;28;20410;-82
2021/12/02 10:42:31;;;;;;;65.50;29.60;;;7.20;77.50;;;;;;4960602;28;20090;-82
2021/12/02 10:45:00;;;;;;;55.33;27.90;;;7.20;77.40;;;;;;4984877;28;20038;-82
2021/12/02 10:47:27;;;;;;;46.13;27.17;;;7.20;77.40;;;;;;4978786;28;20034;-82
2021/12/02 10:49:59;;;;;;;54.30;28.73;;;7.20;77.60;;;;;;4984414;28;20094;-82
2021/12/02 10:52:31;;;;;;;62.33;27.73;;;7.20;77.50;;;;;;4964662;28;20031;-82
2021/12/02 10:55:18;;;;;;;43.83;28.08;;;7.20;77.60;;;;;;4985610;28;20038;-82
2021/12/02 10:57:50;;;;;;;45.43;27.20;;;7.20;77.70;;;;;;4975304;28;20490;-82
2021/12/02 11:00:22;;;;;;;46.10;25.87;;;7.20;77.50;;;;;;4963684;28;20121;-82
2021/12/02 11:02:51;;;;;;;79.80;27.10;;;7.20;77.60;;;;;;4972003;28;20033;-82
2021/12/02 11:05:31;;;;;;;104.07;27.03;;;7.20;77.50;;;;;;4967641;28;20034;-82
2021/12/02 11:08:07;;;;;;;72.90;28.40;;;7.20;77.40;;;;;;4967474;28;20122;-82
2021/12/02 11:10:43;;;;;;;77.07;28.83;;;7.20;77.50;;;;;;4972105;28;20037;-82
2021/12/02 11:13:10;;;;;;;52.10;30.03;;;7.20;77.50;;;;;;4980960;28;20030;-82
2021/12/02 11:15:39;;;;;;;59.30;30.23;;;7.20;77.70;;;;;;4970719;28;20023;-82
2021/12/02 11:18:10;;;;;;;386.03;45.63;;;7.20;77.70;;;;;;4966296;28;20026;-82
2021/12/02 11:20:40;;;;;;;68.47;34.73;;;7.20;77.80;;;;;;4980959;28;20027;-82
2021/12/02 11:23:09;;;;;;;59.53;33.77;;;7.20;77.90;;;;;;4960640;28;20093;-82
2021/12/02 11:25:38;;;;;;;72.87;28.83;;;7.20;77.80;;;;;;4971249;28;20045;-82
2021/12/02 11:28:09;;;;;;;118.47;46.77;;;7.20;77.60;;;;;;4970482;28;20042;-82
2021/12/02 11:30:37;;;;;;;79.37;39.13;;;7.20;77.90;;;;;;4981227;28;20027;-82
2021/12/02 11:33:09;;;;;;;89.97;47.27;;;7.10;77.90;;;;;;4980881;28;20026;-82
2021/12/02 11:35:38;;;;;;;103.43;45.73;;;7.20;77.90;;;;;;4982888;28;20022;-82
2021/12/02 11:38:07;;;;;;;55.73;31.17;;;7.20;77.90;;;;;;4967466;28;20022;-82
2021/12/02 11:40:49;;;;;;;52.50;26.50;;;7.20;77.70;;;;;;4968579;28;20528;-82
2021/12/02 11:43:18;;;;;;;43.10;31.07;;;7.20;77.70;;;;;;4982366;28;20139;-82
2021/12/02 11:45:46;;;;;;;76.87;26.43;;;7.20;77.70;;;;;;4980568;28;20026;-82
2021/12/02 11:48:30;;;;;;;87.13;22.60;;;7.20;77.70;;;;;;4984004;28;20089;-82
2021/12/02 11:50:59;;;;;;;92.17;23.77;;;7.10;77.60;;;;;;4980117;28;20038;-82
2021/12/02 11:53:26;;;;;;;94.37;23.67;;;7.10;77.60;;;;;;4960953;28;20525;-82
2021/12/02 11:55:55;;;;;;;72.37;25.17;;;7.00;77.70;;;;;;4987256;28;20026;-82
2021/12/02 11:58:21;;;;;;;53.83;26.57;;;7.00;78.10;;;;;;4983279;28;20038;-82
2021/12/02 12:00:48;;;;;;;43.73;25.03;;;7.00;78.10;;;;;;4963245;28;20401;-82
2021/12/02 12:03:21;;;;;;;64.00;36.83;;;7.10;78.00;;;;;;4980910;28;20109;-82
2021/12/02 12:05:57;;;;;;;81.07;42.30;;;7.10;78.00;;;;;;4957489;28;20062;-82
2021/12/02 12:08:47;;;;;;;144.53;60.10;;;7.10;77.90;;;;;;4960145;28;20085;-82
2021/12/02 12:11:23;;;;;;;130.37;57.57;;;7.20;77.80;;;;;;4976204;28;20034;-82
2021/12/02 12:14:07;;;;;;;79.47;40.07;;;7.20;77.70;;;;;;4960442;28;20058;-82
2021/12/02 12:16:34;;;;;;;67.73;23.40;;;7.30;77.60;;;;;;4976170;28;20048;-82
2021/12/02 12:19:21;;;;;;;44.30;20.43;;;7.30;77.60;;;;;;4961459;28;20065;-82
2021/12/02 12:22:08;;;;;;;35.47;19.83;;;7.20;77.40;;;;;;4970059;28;20029;-82
2021/12/02 12:24:47;;;;;;;25.33;17.33;;;7.20;77.40;;;;;;4961057;28;20031;-82
2021/12/02 12:27:17;;;;;;;25.83;18.20;;;7.20;77.20;;;;;;4978801;28;20022;-82
2021/12/02 12:29:46;;;;;;;30.17;17.93;;;7.20;77.30;;;;;;4970284;28;20118;-82
2021/12/02 12:40:20;;;;;;;48.77;35.90;;;7.20;77.30;;;;;;4974648;28;20049;-82
2021/12/02 12:42:57;;;;;;;31.47;22.40;;;7.20;77.00;;;;;;4960676;28;20041;-82
2021/12/02 12:45:26;;;;;;;42.60;29.17;;;7.20;77.30;;;;;;4967525;28;20030;-82
2021/12/02 12:47:58;;;;;;;26.90;20.27;;;7.20;77.40;;;;;;4960682;28;20062;-82
2021/12/02 12:50:39;;;;;;;31.85;19.90;;;7.20;77.30;;;;;;4960475;28;20022;-82
2021/12/02 12:53:05;;;;;;;26.87;18.43;;;7.20;77.10;;;;;;4966742;28;20049;-82
2021/12/02 12:55:36;;;;;;;27.87;19.70;;;7.20;77.30;;;;;;4974555;28;20043;-82
2021/12/02 12:58:16;;;;;;;28.63;21.57;;;7.20;77.20;;;;;;4983846;28;20033;-82
2021/12/02 13:00:46;;;;;;;27.70;20.13;;;7.30;77.10;;;;;;4980504;28;20023;-82
2021/12/02 13:06:25;;;;;;;28.73;19.03;;;7.20;77.00;;;;;;4934808;29;20567;-82
2021/12/02 13:09:00;;;;;;;30.88;19.02;;;7.30;77.00;;;;;;4957736;28;20077;-82
2021/12/02 13:11:31;;;;;;;27.40;19.17;;;7.30;76.90;;;;;;4978148;28;20038;-82
2021/12/02 13:13:59;;;;;;;27.43;19.17;;;7.30;76.70;;;;;;4977603;28;20462;-81